Aiguafreda





Hora UTC 04:10
Temperatura 12.5 ºC
Suelo 15 cm 12.4 ºC
Humedad 94.0 %
Presión 1016.6 hPa
Pluja 0.0 mm
Velocidad viento 0.0 km/h
Dirección viento NNE
Radiación solar 0.0 W/m²

Datos diarios 2020-05-30



Hora UTC (invierno +1h; verano +2h)
Temperatura (ºC) Humedad (%) Presión (hPa) Velocidad viento (km/h) Precipitación (mm) Radiación solar (W/m²)
Hora UTC Aire Suelo 15 cm Humedad Presión Vel. Dir. Vel. Max Dir. Intent. máx 5 min. Rad. Sol.
00:05 12.7 12.2 96.5 1016.7 0.0 NNE 0.0 WSW 0.0 0.0
00:10 12.6 12.1 96.5 1016.7 0.0 NNE 0.0 WNW 0.0 0.0
00:15 12.5 12.0 96.4 1016.7 0.0 NNE 0.0 WNW 0.0 0.0
00:20 12.4 12.0 96.5 1016.6 0.0 NNE 0.0 WNW 0.0 0.0
00:25 12.4 11.9 96.6 1016.6 0.0 NNE 0.0 WNW 0.0 0.0
00:30 12.4 12.0 96.7 1016.6 0.0 NNE 0.0 WNW 0.0 0.0
00:35 12.4 12.0 96.8 1016.7 0.0 NNE 0.0 W 0.0 0.0
00:40 12.5 12.0 96.8 1016.7 0.0 NNE 0.0 WSW 0.0 0.0
00:45 12.5 12.1 96.8 1016.6 0.0 NNE 0.0 W 0.0 0.0
00:50 12.6 12.2 96.8 1016.6 0.0 NNE 0.0 W 0.0 0.0
00:55 12.7 12.3 96.9 1016.6 0.0 NNE 0.0 W 0.0 0.0
01:00 12.7 12.3 96.7 1016.6 0.0 NNE 0.0 W 0.0 0.0
01:05 12.7 12.4 96.7 1016.6 0.0 NNE 0.0 SSW 0.0 0.0
01:10 12.7 12.4 96.6 1016.7 0.0 NNE 0.0 SSW 0.0 0.0
01:15 12.7 12.5 96.5 1016.7 0.0 NNE 0.0 SSW 0.0 0.0
01:20 12.7 12.6 96.5 1016.7 0.0 NNE 0.0 W 0.0 0.0
01:25 12.7 12.6 96.4 1016.8 0.0 NNE 0.0 E 0.0 0.0
01:30 12.6 12.6 96.1 1016.9 0.0 NNE 0.0 SW 0.0 0.0
01:35 12.7 12.6 96.1 1016.8 0.0 NNE 0.0 SW 0.0 0.0
01:40 12.7 12.6 96.1 1016.8 0.0 NNE 0.0 SW 0.0 0.0
01:45 12.8 12.6 95.9 1016.9 0.0 NNE 0.0 SW 0.0 0.0
01:50 12.8 12.7 96.0 1016.9 0.0 NNE 0.0 S 0.0 0.0
01:55 12.9 12.8 96.1 1016.9 0.0 NNE 0.0 SE 0.0 0.0
02:00 13.0 12.9 96.3 1016.9 0.0 NNE 0.0 SE 0.0 0.0
02:05 13.1 13.0 96.1 1016.8 0.0 NNE 0.0 SE 0.0 0.0
02:10 13.0 12.9 95.9 1016.9 0.0 NNE 0.0 WSW 0.0 0.0
02:15 12.9 12.7 95.6 1016.8 0.0 NNE 0.0 SW 0.0 0.0
02:20 12.8 12.7 95.3 1016.8 0.0 NNE 0.0 SW 0.0 0.0
02:25 12.8 12.7 95.5 1016.9 0.0 NNE 0.0 SSW 0.0 0.0
02:30 12.9 12.8 95.5 1016.8 0.0 NNE 0.0 SSW 0.0 0.0
02:35 12.9 12.8 95.4 1016.8 0.0 NNE 0.0 W 0.0 0.0
02:40 12.8 12.8 95.4 1016.6 0.0 NNE 0.0 NW 0.0 0.0
02:45 12.8 12.7 95.4 1016.6 0.0 NNE 0.0 WNW 0.0 0.0
02:50 12.7 12.7 95.2 1016.7 0.0 NNE 0.0 SW 0.0 0.0
02:55 12.6 12.7 94.9 1016.6 0.0 NNE 0.0 NW 0.0 0.0
03:00 12.6 12.7 95.0 1016.7 0.0 NNE 0.0 WNW 0.0 0.0
03:05 12.7 12.7 95.2 1016.7 0.0 NNE 0.0 WNW 0.0 0.0
03:10 12.7 12.6 95.0 1016.6 0.0 NNE 0.0 W 0.0 0.0
03:15 12.7 12.5 94.8 1016.5 0.0 NNE 0.0 WSW 0.0 0.0
03:20 12.7 12.5 94.7 1016.6 0.0 NNE 0.0 SW 0.0 0.0
03:25 12.7 12.5 94.8 1016.6 0.0 NNE 0.0 WSW 0.0 0.0
03:30 12.8 12.5 94.9 1016.6 0.0 NNE 0.0 SSE 0.0 0.0
03:35 12.8 12.5 95.1 1016.6 0.0 NNE 0.0 SSE 0.0 0.0
03:40 12.9 12.6 95.1 1016.6 0.0 NNE 0.0 NNE 0.0 0.0
03:45 13.0 12.7 95.2 1016.6 0.0 NNE 0.0 NNE 0.0 0.0
03:50 12.9 12.6 94.7 1016.5 0.0 NNE 0.0 WSW 0.0 0.0
03:55 12.8 12.5 94.4 1016.5 0.0 NNE 0.0 SW 0.0 0.0
04:00 12.7 12.5 94.2 1016.6 0.0 NNE 0.0 WSW 0.0 0.0
04:05 12.5 12.4 94.0 1016.7 0.0 NNE 0.0 WSW 0.0 0.0
04:10 12.5 12.4 94.0 1016.6 0.0 NNE 0.0 SW 0.0 0.0
Máxima 13.1 13.0 96.9 1016.9 0.0 NNE 0.0 SW 0.0 0.0
Mínima 12.4 11.9 94.0 1016.5
Total 0.0